createdAt,value
2023-01-02T00:01:49.085Z,9.60
2023-01-02T00:04:17.869Z,8.73
2023-01-02T00:06:46.296Z,8.93
2023-01-02T00:09:15.425Z,8.23
2023-01-02T00:11:45.457Z,7.90
2023-01-02T00:14:14.371Z,8.00
2023-01-02T00:16:42.801Z,7.97
2023-01-02T00:19:11.326Z,7.57
2023-01-02T00:21:39.983Z,7.53
2023-01-02T00:24:09.583Z,7.57
2023-01-02T00:26:38.067Z,7.57
2023-01-02T00:29:08.173Z,7.33
2023-01-02T00:31:37.068Z,7.03
2023-01-02T00:34:05.608Z,7.53
2023-01-02T00:36:34.385Z,7.13
2023-01-02T00:39:02.941Z,7.10
2023-01-02T00:41:31.385Z,6.20
2023-01-02T00:43:59.825Z,6.23
2023-01-02T00:46:29.993Z,6.17
2023-01-02T00:48:58.691Z,5.83
2023-01-02T00:51:27.444Z,5.17
2023-01-02T00:53:55.861Z,5.27
2023-01-02T00:56:24.427Z,6.00
2023-01-02T00:58:52.861Z,5.00
2023-01-02T01:01:21.521Z,5.20
2023-01-02T01:03:51.523Z,4.47
2023-01-02T01:06:21.702Z,5.33
2023-01-02T01:08:50.413Z,5.03
2023-01-02T01:11:19.002Z,3.87
2023-01-02T01:13:48.145Z,4.63
2023-01-02T01:16:19.021Z,4.50
2023-01-02T01:18:48.697Z,4.73
2023-01-02T01:21:21.133Z,3.60
2023-01-02T01:23:52.414Z,4.00
2023-01-02T01:26:22.492Z,4.20
2023-01-02T01:28:53.244Z,4.10
2023-01-02T01:31:22.438Z,3.67
2023-01-02T01:33:51.748Z,4.03
2023-01-02T01:36:26.126Z,4.10
2023-01-02T01:38:54.617Z,4.43
2023-01-02T01:41:25.859Z,4.07
2023-01-02T01:43:57.954Z,5.03
2023-01-02T01:46:32.595Z,4.10
2023-01-02T01:49:07.259Z,3.77
2023-01-02T01:51:42.693Z,3.83
2023-01-02T01:54:16.150Z,4.73
2023-01-02T01:56:49.231Z,4.87
2023-01-02T01:59:18.808Z,4.07
2023-01-02T02:01:50.804Z,4.80
2023-01-02T02:04:23.561Z,4.73
2023-01-02T02:06:54.532Z,4.63
2023-01-02T02:09:28.766Z,4.33
2023-01-02T02:11:57.291Z,5.07
2023-01-02T02:14:25.913Z,4.57
2023-01-02T02:17:02.028Z,4.60
2023-01-02T02:19:57.981Z,4.07
2023-01-02T02:22:50.766Z,4.93
2023-01-02T02:25:55.051Z,4.43
2023-01-02T02:28:57.666Z,5.57
2023-01-02T02:31:35.606Z,4.73
2023-01-02T02:34:14.455Z,4.30
2023-01-02T02:36:55.005Z,4.37
2023-01-02T02:39:39.266Z,4.80
2023-01-02T02:42:17.887Z,4.97
2023-01-02T02:44:56.462Z,4.43
2023-01-02T02:47:36.730Z,4.77
2023-01-02T02:50:12.423Z,4.70
2023-01-02T02:52:47.955Z,4.50
2023-01-02T02:55:21.600Z,3.63
2023-01-02T02:57:53.026Z,4.70
2023-01-02T03:00:24.383Z,5.00
2023-01-02T03:02:54.360Z,4.57
2023-01-02T03:05:30.778Z,4.10
2023-01-02T03:08:07.388Z,4.37
2023-01-02T03:10:48.426Z,4.80
2023-01-02T03:13:27.844Z,3.93
2023-01-02T03:16:06.126Z,4.93
2023-01-02T03:18:48.442Z,4.60
2023-01-02T03:21:27.968Z,4.60
2023-01-02T03:24:03.964Z,4.77
2023-01-02T03:26:35.012Z,4.57
2023-01-02T03:29:08.398Z,4.60
2023-01-02T03:31:41.949Z,5.13
2023-01-02T03:34:15.058Z,4.70
2023-01-02T03:36:48.035Z,4.90
2023-01-02T03:39:19.452Z,4.77
2023-01-02T03:41:54.924Z,4.63
2023-01-02T03:44:25.649Z,4.27
2023-01-02T03:47:01.367Z,4.50
2023-01-02T03:49:36.107Z,5.27
2023-01-02T03:52:04.764Z,4.23
2023-01-02T03:54:33.774Z,4.87
2023-01-02T03:57:06.251Z,4.10
2023-01-02T03:59:40.914Z,4.50
2023-01-02T04:02:14.949Z,5.07
2023-01-02T04:04:51.429Z,4.43
2023-01-02T04:07:29.762Z,4.43
2023-01-02T04:10:00.150Z,4.37
2023-01-02T04:12:31.305Z,4.07
2023-01-02T04:15:02.128Z,3.80
2023-01-02T04:17:33.335Z,5.27
2023-01-02T04:20:06.648Z,4.57
2023-01-02T04:22:45.802Z,4.87
2023-01-02T04:25:17.284Z,4.07
2023-01-02T04:27:52.162Z,4.90
2023-01-02T04:30:21.222Z,3.93
2023-01-02T04:32:50.653Z,3.93
2023-01-02T04:35:23.748Z,3.53
2023-01-02T04:37:52.671Z,3.63
2023-01-02T04:40:26.723Z,3.47
2023-01-02T04:42:55.341Z,3.20
2023-01-02T04:45:24.128Z,3.67
2023-01-02T04:47:52.545Z,3.27
2023-01-02T04:50:23.068Z,3.50
2023-01-02T04:52:51.915Z,3.30
2023-01-02T04:55:20.650Z,3.73
2023-01-02T04:57:49.227Z,3.50
2023-01-02T05:00:18.287Z,3.67
2023-01-02T05:02:47.024Z,3.33
2023-01-02T05:05:15.584Z,4.27
2023-01-02T05:07:45.683Z,3.70
2023-01-02T05:10:14.223Z,2.90
2023-01-02T05:12:42.874Z,4.27
2023-01-02T05:15:13.354Z,3.57
2023-01-02T05:17:43.398Z,3.20
2023-01-02T05:20:14.163Z,3.00
2023-01-02T05:22:57.806Z,3.60
2023-01-02T05:25:27.853Z,3.53
2023-01-02T05:27:56.854Z,2.63
2023-01-02T05:30:27.205Z,3.50
2023-01-02T05:32:55.961Z,3.40
2023-01-02T05:35:30.185Z,3.43
2023-01-02T05:38:01.362Z,3.10
2023-01-02T05:40:32.650Z,3.50
2023-01-02T05:43:02.280Z,3.87
2023-01-02T05:45:32.403Z,2.93
2023-01-02T05:48:00.938Z,3.20
2023-01-02T05:50:29.727Z,2.70
2023-01-02T05:52:58.253Z,2.50
2023-01-02T05:55:26.732Z,2.97
2023-01-02T05:57:59.459Z,3.13
2023-01-02T06:00:28.628Z,2.73
2023-01-02T06:02:57.238Z,3.43
2023-01-02T06:05:25.741Z,2.87
2023-01-02T06:07:54.728Z,3.50
2023-01-02T06:10:23.656Z,3.53
2023-01-02T06:12:52.452Z,3.20
2023-01-02T06:15:23.306Z,3.93
2023-01-02T06:17:52.366Z,3.83
2023-01-02T06:20:20.960Z,3.23
2023-01-02T06:22:49.420Z,4.00
2023-01-02T06:25:18.149Z,4.17
2023-01-02T06:27:46.613Z,3.90
2023-01-02T06:30:15.249Z,4.80
2023-01-02T06:32:45.272Z,3.77
2023-01-02T06:35:14.084Z,4.13
2023-01-02T06:37:45.044Z,4.43
2023-01-02T06:40:13.913Z,4.17
2023-01-02T06:42:44.683Z,4.60
2023-01-02T06:45:13.305Z,4.80
2023-01-02T06:47:41.862Z,4.47
2023-01-02T06:50:12.045Z,4.10
2023-01-02T06:52:40.536Z,4.27
2023-01-02T06:55:09.491Z,4.57
2023-01-02T06:57:38.098Z,4.57
2023-01-02T07:00:07.815Z,4.23
2023-01-02T07:02:36.380Z,4.30
2023-01-02T07:05:05.233Z,3.20
2023-01-02T07:07:35.043Z,4.63
2023-01-02T07:10:03.960Z,3.80
2023-01-02T07:12:32.547Z,4.30
2023-01-02T07:15:01.091Z,3.97
2023-01-02T07:17:30.091Z,4.23
2023-01-02T07:20:01.980Z,4.20
2023-01-02T07:22:31.138Z,3.87
2023-01-02T07:25:02.128Z,4.30
2023-01-02T07:27:31.141Z,3.80
2023-01-02T07:29:59.776Z,3.80
2023-01-02T07:32:28.417Z,3.60
2023-01-02T07:34:57.065Z,3.90
2023-01-02T07:37:25.532Z,4.07
2023-01-02T07:39:54.211Z,3.97
2023-01-02T07:42:24.251Z,4.40
2023-01-02T07:44:52.758Z,4.03
2023-01-02T07:47:21.555Z,3.87
2023-01-02T07:49:50.175Z,3.80
2023-01-02T07:52:18.658Z,1.80
2023-01-02T07:54:47.119Z,1.80
2023-01-02T07:57:15.879Z,1.30
2023-01-02T07:59:47.234Z,1.10
2023-01-02T08:02:15.938Z,1.07
2023-01-02T08:04:44.506Z,0.90
2023-01-02T08:07:12.911Z,1.27
2023-01-02T08:09:41.425Z,1.27
2023-01-02T08:12:09.872Z,1.03
2023-01-02T08:14:38.535Z,0.70
2023-01-02T08:17:08.906Z,1.07
2023-01-02T08:19:37.550Z,1.10
2023-01-02T08:22:06.555Z,1.50
2023-01-02T08:24:35.170Z,1.70
2023-01-02T08:27:03.815Z,2.10
2023-01-02T08:29:32.326Z,2.40
2023-01-02T08:32:01.465Z,2.07
2023-01-02T08:34:32.269Z,2.20
2023-01-02T08:37:00.945Z,2.57
2023-01-02T08:39:30.451Z,2.00
2023-01-02T08:41:59.531Z,2.70
2023-01-02T08:44:28.264Z,2.30
2023-01-02T08:46:57.186Z,3.53
2023-01-02T08:49:25.803Z,3.17
2023-01-02T08:51:56.189Z,3.70
2023-01-02T08:54:25.051Z,4.40
2023-01-02T08:56:53.722Z,4.97
2023-01-02T08:59:25.144Z,5.33
2023-01-02T09:01:54.582Z,6.50
2023-01-02T09:04:23.212Z,7.83
2023-01-02T09:06:51.919Z,7.43
2023-01-02T09:09:22.197Z,6.97
2023-01-02T09:11:52.836Z,7.17
2023-01-02T09:14:23.098Z,7.60
2023-01-02T09:16:52.684Z,7.27
2023-01-02T09:19:21.434Z,8.20
2023-01-02T09:21:50.147Z,8.10
2023-01-02T09:24:19.724Z,8.53
2023-01-02T09:26:49.972Z,8.53
2023-01-02T09:29:18.875Z,8.53
2023-01-02T09:31:47.933Z,10.50
2023-01-02T09:34:16.942Z,9.80
2023-01-02T09:36:47.672Z,10.80
2023-01-02T09:39:16.521Z,12.07
2023-01-02T09:41:49.481Z,11.87
2023-01-02T09:44:23.457Z,11.83
2023-01-02T09:46:57.933Z,13.07
2023-01-02T09:49:30.783Z,11.33
2023-01-02T09:51:59.633Z,12.13
2023-01-02T09:54:30.055Z,11.70
2023-01-02T09:57:26.043Z,11.50
2023-01-02T10:00:03.488Z,10.13
2023-01-02T10:02:49.484Z,10.97
2023-01-02T10:06:07.352Z,10.57
2023-01-02T10:08:48.136Z,9.97
2023-01-02T10:11:28.769Z,9.23
2023-01-02T10:14:18.876Z,9.87
2023-01-02T10:16:54.259Z,9.13
2023-01-02T10:19:28.862Z,9.00
2023-01-02T10:22:00.372Z,8.97
2023-01-02T10:24:39.117Z,8.73
2023-01-02T10:27:14.529Z,8.13
2023-01-02T10:29:49.441Z,8.77
2023-01-02T10:32:23.148Z,8.83
2023-01-02T10:35:05.452Z,8.63
2023-01-02T10:37:35.370Z,8.50
2023-01-02T10:40:04.823Z,8.47
2023-01-02T10:42:35.140Z,8.40
2023-01-02T10:45:05.167Z,8.53
2023-01-02T10:47:37.932Z,8.27
2023-01-02T10:50:08.998Z,8.10
2023-01-02T10:52:44.821Z,7.37
2023-01-02T10:55:13.496Z,8.07
2023-01-02T10:57:44.682Z,7.50
2023-01-02T11:00:29.032Z,7.67
2023-01-02T11:03:01.330Z,7.83
2023-01-02T11:05:32.243Z,7.83
2023-01-02T11:08:07.688Z,7.73
2023-01-02T11:10:38.780Z,7.80
2023-01-02T11:13:13.258Z,8.93
2023-01-02T11:15:54.224Z,8.20
2023-01-02T11:18:27.280Z,9.03
2023-01-02T11:21:04.190Z,8.83
2023-01-02T11:23:39.967Z,8.83
2023-01-02T11:26:20.789Z,9.50
2023-01-02T11:28:51.959Z,9.27
2023-01-02T11:31:23.047Z,10.93
2023-01-02T11:33:53.227Z,11.17
2023-01-02T11:36:21.921Z,10.70
2023-01-02T11:38:51.971Z,10.83
2023-01-02T11:41:47.522Z,11.23
2023-01-02T11:44:20.948Z,12.00
2023-01-02T11:46:50.084Z,12.93
2023-01-02T11:49:22.683Z,13.07
2023-01-02T11:51:58.010Z,13.17
2023-01-02T11:54:38.194Z,12.83
2023-01-02T11:57:18.746Z,12.73
2023-01-02T11:59:50.219Z,12.57
2023-01-02T12:02:26.102Z,11.27
2023-01-02T12:04:56.530Z,11.30
2023-01-02T12:07:41.842Z,10.77
2023-01-02T12:10:25.597Z,10.80
2023-01-02T12:13:07.574Z,9.97
2023-01-02T12:16:07.891Z,9.47
2023-01-02T12:19:11.284Z,8.70
2023-01-02T12:21:54.725Z,7.80
2023-01-02T12:24:40.711Z,7.70
2023-01-02T12:27:17.007Z,7.67
2023-01-02T12:30:09.007Z,9.90
2023-01-02T12:33:19.599Z,6.80
2023-01-02T12:36:12.058Z,7.10
2023-01-02T12:38:58.445Z,7.27
2023-01-02T12:41:33.133Z,7.40
2023-01-02T12:44:22.175Z,7.50
2023-01-02T12:47:17.018Z,8.43
2023-01-02T12:49:59.283Z,7.93
2023-01-02T12:52:45.150Z,6.63
2023-01-02T12:55:28.421Z,8.07
2023-01-02T12:58:04.010Z,7.40
2023-01-02T13:01:00.183Z,7.00
2023-01-02T13:04:09.649Z,6.77
2023-01-02T13:06:48.384Z,6.40
2023-01-02T13:09:23.984Z,5.33
2023-01-02T13:12:01.429Z,6.20
2023-01-02T13:14:36.407Z,5.27
2023-01-02T13:17:18.209Z,5.27
2023-01-02T13:19:52.822Z,5.50
2023-01-02T13:22:31.215Z,4.73
2023-01-02T13:25:01.140Z,4.97
2023-01-02T13:27:31.856Z,5.07
2023-01-02T13:30:04.520Z,4.60
2023-01-02T13:32:33.835Z,5.20
2023-01-02T13:35:12.859Z,5.60
2023-01-02T13:37:44.459Z,5.10
2023-01-02T13:40:26.441Z,6.00
2023-01-02T13:43:03.573Z,6.00
2023-01-02T13:45:37.736Z,6.87
2023-01-02T13:48:15.747Z,6.27
2023-01-02T13:50:46.406Z,6.67
2023-01-02T13:53:31.583Z,7.23
2023-01-02T13:56:09.665Z,6.97
2023-01-02T13:58:52.010Z,6.50
2023-01-02T14:01:53.787Z,6.40
2023-01-02T14:04:38.398Z,6.60
2023-01-02T14:07:42.990Z,6.33
2023-01-02T14:10:37.948Z,5.60
2023-01-02T14:13:36.984Z,5.77
2023-01-02T14:16:51.423Z,4.70
2023-01-02T14:19:23.650Z,5.30
2023-01-02T14:21:56.210Z,4.80
2023-01-02T14:24:30.616Z,3.83
2023-01-02T14:27:03.323Z,5.00
2023-01-02T14:29:34.144Z,4.77
2023-01-02T14:32:08.113Z,4.53
2023-01-02T14:34:47.377Z,4.47
2023-01-02T14:37:29.942Z,5.73
2023-01-02T14:40:11.092Z,5.23
2023-01-02T14:42:58.491Z,5.07
2023-01-02T14:45:30.917Z,5.57
2023-01-02T14:48:08.897Z,6.03
2023-01-02T14:50:42.344Z,6.27
2023-01-02T14:53:19.762Z,6.60
2023-01-02T14:55:51.897Z,6.53
2023-01-02T14:58:27.070Z,6.83
2023-01-02T15:01:04.203Z,7.03
2023-01-02T15:03:44.241Z,7.70
2023-01-02T15:06:21.442Z,7.67
2023-01-02T15:08:53.414Z,8.17
2023-01-02T15:11:41.160Z,9.13
2023-01-02T15:14:17.738Z,8.77
2023-01-02T15:16:52.375Z,8.47
2023-01-02T15:19:26.725Z,9.00
2023-01-02T15:21:55.682Z,8.47
2023-01-02T15:24:27.168Z,8.47
2023-01-02T15:26:58.165Z,7.87
2023-01-02T15:29:29.363Z,7.87
2023-01-02T15:31:59.854Z,8.60
2023-01-02T15:34:32.427Z,8.27
2023-01-02T15:37:04.838Z,7.97
2023-01-02T15:39:42.131Z,8.43
2023-01-02T15:42:36.666Z,8.40
2023-01-02T15:45:13.961Z,8.37
2023-01-02T15:47:46.990Z,8.47
2023-01-02T15:50:21.248Z,8.37
2023-01-02T15:52:54.483Z,9.60
2023-01-02T15:55:23.487Z,8.40
2023-01-02T15:57:54.813Z,28.00
2023-01-02T16:00:36.471Z,49.40
2023-01-02T16:03:05.685Z,49.43
2023-01-02T16:05:50.127Z,21.43
2023-01-02T16:08:22.521Z,11.33
2023-01-02T16:11:01.490Z,6.53
2023-01-02T16:13:50.170Z,4.20
2023-01-02T16:16:20.161Z,3.30
2023-01-02T16:18:52.193Z,2.57
2023-01-02T16:21:23.304Z,2.20
2023-01-02T16:23:56.084Z,1.77
2023-01-02T16:26:31.475Z,1.37
2023-01-02T16:29:00.178Z,1.10
2023-01-02T16:31:29.365Z,1.00
2023-01-02T16:34:16.108Z,1.00
2023-01-02T16:36:46.343Z,1.20
2023-01-02T16:39:41.997Z,1.13
2023-01-02T16:42:28.312Z,1.43
2023-01-02T16:44:57.585Z,1.10
2023-01-02T16:47:30.909Z,1.57
2023-01-02T16:49:59.586Z,1.50
2023-01-02T16:52:30.204Z,1.87
2023-01-02T16:54:58.738Z,1.30
2023-01-02T16:57:27.492Z,1.60
2023-01-02T16:59:56.020Z,2.10
2023-01-02T17:02:24.758Z,2.10
2023-01-02T17:04:53.399Z,1.90
2023-01-02T17:07:22.656Z,2.00
2023-01-02T17:09:53.064Z,1.90
2023-01-02T17:12:22.057Z,2.40
2023-01-02T17:14:50.830Z,2.47
2023-01-02T17:17:20.573Z,2.80
2023-01-02T17:19:49.094Z,2.27
2023-01-02T17:22:17.807Z,2.43
2023-01-02T17:24:46.570Z,2.50
2023-01-02T17:27:16.500Z,2.50
2023-01-02T17:29:45.237Z,2.40
2023-01-02T17:32:13.997Z,2.47
2023-01-02T17:34:42.686Z,2.43
2023-01-02T17:37:11.342Z,2.90
2023-01-02T17:39:39.931Z,2.53
2023-01-02T17:42:11.353Z,3.23
2023-01-02T17:44:41.737Z,3.03
2023-01-02T17:47:48.311Z,3.07
2023-01-02T17:49:59.401Z,3.03
2023-01-02T17:52:28.136Z,3.50
2023-01-02T17:54:57.229Z,3.10
2023-01-02T17:57:26.421Z,3.50
2023-01-02T17:59:56.670Z,3.30
2023-01-02T18:02:25.353Z,3.40
2023-01-02T18:04:55.477Z,3.87
2023-01-02T18:07:25.691Z,3.97
2023-01-02T18:10:09.177Z,4.20
2023-01-02T18:12:44.120Z,4.30
2023-01-02T18:15:16.746Z,4.17
2023-01-02T18:17:45.496Z,3.70
2023-01-02T18:20:16.213Z,4.30
2023-01-02T18:22:49.543Z,3.93
2023-01-02T18:25:21.747Z,4.60
2023-01-02T18:27:50.523Z,4.60
2023-01-02T18:30:23.282Z,4.57
2023-01-02T18:32:59.429Z,5.37
2023-01-02T18:35:56.936Z,5.17
2023-01-02T18:38:29.398Z,4.87
2023-01-02T18:40:57.993Z,5.23
2023-01-02T18:43:29.724Z,5.23
2023-01-02T18:46:11.048Z,6.00
2023-01-02T18:48:40.837Z,7.97
2023-01-02T18:51:15.280Z,12.13
2023-01-02T18:53:50.432Z,13.83
2023-01-02T18:56:24.410Z,13.17
2023-01-02T18:59:01.189Z,13.47
2023-01-02T19:01:35.088Z,12.70
2023-01-02T19:04:27.286Z,11.30
2023-01-02T19:06:59.354Z,8.77
2023-01-02T19:09:32.051Z,7.63
2023-01-02T19:12:21.073Z,7.00
2023-01-02T19:14:57.496Z,6.40
2023-01-02T19:17:29.549Z,7.27
2023-01-02T19:19:59.379Z,7.07
2023-01-02T19:22:34.172Z,7.60
2023-01-02T19:25:06.025Z,7.50
2023-01-02T19:27:37.356Z,7.10
2023-01-02T19:30:10.614Z,6.70
2023-01-02T19:32:42.553Z,7.47
2023-01-02T19:35:54.497Z,8.47
2023-01-02T19:38:28.590Z,9.57
2023-01-02T19:40:59.184Z,15.17
2023-01-02T19:43:28.468Z,18.20
2023-01-02T19:45:57.352Z,22.90
2023-01-02T19:48:27.237Z,21.43
2023-01-02T19:50:55.809Z,19.03
2023-01-02T19:53:24.408Z,17.80
2023-01-02T19:55:53.031Z,17.87
2023-01-02T19:58:21.766Z,17.23
2023-01-02T20:00:50.486Z,15.43
2023-01-02T20:03:19.122Z,11.93
2023-01-02T20:05:49.944Z,12.63
2023-01-02T20:08:19.426Z,12.70
2023-01-02T20:10:48.173Z,13.70
2023-01-02T20:13:17.088Z,13.70
2023-01-02T20:15:46.005Z,13.00
2023-01-02T20:18:18.844Z,11.13
2023-01-02T20:20:48.932Z,11.03
2023-01-02T20:23:17.890Z,11.20
2023-01-02T20:25:48.073Z,10.83
2023-01-02T20:28:16.813Z,11.80
2023-01-02T20:30:46.920Z,11.30
2023-01-02T20:33:15.612Z,11.37
2023-01-02T20:35:44.092Z,10.73
2023-01-02T20:38:14.056Z,11.57
2023-01-02T20:40:42.955Z,10.53
2023-01-02T20:43:11.634Z,11.33
2023-01-02T20:45:40.250Z,12.00
2023-01-02T20:48:08.882Z,11.57
2023-01-02T20:50:37.601Z,13.27
2023-01-02T20:53:07.855Z,12.43
2023-01-02T20:55:40.190Z,11.37
2023-01-02T20:58:09.028Z,12.60
2023-01-02T21:00:38.116Z,11.90
2023-01-02T21:03:07.192Z,12.77
2023-01-02T21:05:36.582Z,13.93
2023-01-02T21:08:05.808Z,13.40
2023-01-02T21:10:34.975Z,13.07
2023-01-02T21:13:12.113Z,13.03
2023-01-02T21:15:51.996Z,11.23
2023-01-02T21:18:24.835Z,13.03
2023-01-02T21:20:55.812Z,13.30
2023-01-02T21:23:27.078Z,12.93
2023-01-02T21:25:56.170Z,13.57
2023-01-02T21:28:26.980Z,14.13
2023-01-02T21:30:56.131Z,12.73
2023-01-02T21:33:26.740Z,12.93
2023-01-02T21:35:57.565Z,13.37
2023-01-02T21:38:27.616Z,12.47
2023-01-02T21:41:17.692Z,11.67
2023-01-02T21:43:48.535Z,13.17
2023-01-02T21:46:17.519Z,11.80
2023-01-02T21:48:46.478Z,12.80
2023-01-02T21:51:15.330Z,12.77
2023-01-02T21:53:44.649Z,12.50
2023-01-02T21:56:14.213Z,12.13
2023-01-02T21:58:43.469Z,12.87
2023-01-02T22:01:14.371Z,12.27
2023-01-02T22:03:43.330Z,10.77
2023-01-02T22:06:11.979Z,11.67
2023-01-02T22:08:40.909Z,11.13
2023-01-02T22:11:27.333Z,11.83
2023-01-02T22:13:56.337Z,11.20
2023-01-02T22:16:27.667Z,12.60
2023-01-02T22:18:56.576Z,11.23
2023-01-02T22:21:25.615Z,11.13
2023-01-02T22:23:54.496Z,11.93
2023-01-02T22:26:23.331Z,11.20
2023-01-02T22:28:52.258Z,11.03
2023-01-02T22:31:21.267Z,9.30
2023-01-02T22:33:51.903Z,9.00
2023-01-02T22:36:20.992Z,8.43
2023-01-02T22:39:26.038Z,8.97
2023-01-02T22:41:43.783Z,8.43
2023-01-02T22:44:16.318Z,8.30
2023-01-02T22:46:49.116Z,8.60
2023-01-02T22:49:22.294Z,8.97
2023-01-02T22:52:08.652Z,7.40
2023-01-02T22:54:37.667Z,7.87
2023-01-02T22:57:11.113Z,7.43
2023-01-02T22:59:40.595Z,6.80
2023-01-02T23:02:15.064Z,7.70
2023-01-02T23:04:45.601Z,7.57
2023-01-02T23:07:24.368Z,6.40
2023-01-02T23:09:53.468Z,7.17
2023-01-02T23:12:21.936Z,6.80
2023-01-02T23:14:50.868Z,7.03
2023-01-02T23:17:37.787Z,6.60
2023-01-02T23:20:09.379Z,6.77
2023-01-02T23:22:39.143Z,7.60
2023-01-02T23:25:08.754Z,6.50
2023-01-02T23:27:37.593Z,7.13
2023-01-02T23:30:07.673Z,6.53
2023-01-02T23:32:36.115Z,7.03
2023-01-02T23:35:05.592Z,6.07
2023-01-02T23:37:35.616Z,6.43
2023-01-02T23:40:04.199Z,6.07
2023-01-02T23:42:32.647Z,6.30
2023-01-02T23:45:03.273Z,6.67
2023-01-02T23:47:32.231Z,6.87
2023-01-02T23:50:00.761Z,6.63
2023-01-02T23:52:29.227Z,7.07
2023-01-02T23:54:59.476Z,5.87
2023-01-02T23:57:27.998Z,7.70
2023-01-02T23:59:56.542Z,6.93
